sensor_id;sensor_type;location;lat;lon;timestamp;P1;durP1;ratioP1;P2;durP2;ratioP2
69573;SDS011;62840;52.366;5.980;2023-05-15T00:00:03;13.65;;;6.95;;
69573;SDS011;62840;52.366;5.980;2023-05-15T00:02:31;14.98;;;7.28;;
69573;SDS011;62840;52.366;5.980;2023-05-15T00:04:57;17.13;;;7.93;;
69573;SDS011;62840;52.366;5.980;2023-05-15T00:07:22;15.83;;;7.77;;
69573;SDS011;62840;52.366;5.980;2023-05-15T00:09:48;13.27;;;7.25;;
69573;SDS011;62840;52.366;5.980;2023-05-15T00:12:14;15.30;;;7.07;;
69573;SDS011;62840;52.366;5.980;2023-05-15T00:14:39;16.95;;;7.68;;
69573;SDS011;62840;52.366;5.980;2023-05-15T00:17:08;15.33;;;7.60;;
69573;SDS011;62840;52.366;5.980;2023-05-15T00:19:33;15.27;;;7.47;;
69573;SDS011;62840;52.366;5.980;2023-05-15T00:21:59;16.60;;;7.03;;
69573;SDS011;62840;52.366;5.980;2023-05-15T00:24:25;16.80;;;7.27;;
69573;SDS011;62840;52.366;5.980;2023-05-15T00:26:51;14.98;;;7.68;;
69573;SDS011;62840;52.366;5.980;2023-05-15T00:29:16;18.67;;;7.83;;
69573;SDS011;62840;52.366;5.980;2023-05-15T00:31:42;14.65;;;7.95;;
69573;SDS011;62840;52.366;5.980;2023-05-15T00:34:10;16.63;;;8.10;;
69573;SDS011;62840;52.366;5.980;2023-05-15T00:36:36;16.23;;;8.05;;
69573;SDS011;62840;52.366;5.980;2023-05-15T00:39:02;15.48;;;8.30;;
69573;SDS011;62840;52.366;5.980;2023-05-15T00:41:28;15.93;;;7.33;;
69573;SDS011;62840;52.366;5.980;2023-05-15T00:43:54;16.30;;;7.38;;
69573;SDS011;62840;52.366;5.980;2023-05-15T00:46:21;16.60;;;7.78;;
69573;SDS011;62840;52.366;5.980;2023-05-15T00:48:49;16.00;;;7.40;;
69573;SDS011;62840;52.366;5.980;2023-05-15T00:51:19;17.47;;;7.90;;
69573;SDS011;62840;52.366;5.980;2023-05-15T00:53:44;15.07;;;7.70;;
69573;SDS011;62840;52.366;5.980;2023-05-15T00:56:11;16.63;;;8.13;;
69573;SDS011;62840;52.366;5.980;2023-05-15T00:58:37;17.00;;;7.93;;
69573;SDS011;62840;52.366;5.980;2023-05-15T01:01:04;19.55;;;8.80;;
69573;SDS011;62840;52.366;5.980;2023-05-15T01:03:37;16.33;;;8.10;;
69573;SDS011;62840;52.366;5.980;2023-05-15T01:06:09;15.63;;;7.95;;
69573;SDS011;62840;52.366;5.980;2023-05-15T01:11:27;15.57;;;8.15;;
69573;SDS011;62840;52.366;5.980;2023-05-15T01:14:03;15.53;;;7.77;;
69573;SDS011;62840;52.366;5.980;2023-05-15T01:16:36;16.20;;;7.90;;
69573;SDS011;62840;52.366;5.980;2023-05-15T01:19:04;16.40;;;7.88;;
69573;SDS011;62840;52.366;5.980;2023-05-15T01:25:09;18.98;;;7.30;;
69573;SDS011;62840;52.366;5.980;2023-05-15T01:28:21;15.93;;;8.50;;
69573;SDS011;62840;52.366;5.980;2023-05-15T01:30:56;12.65;;;6.72;;
69573;SDS011;62840;52.366;5.980;2023-05-15T01:33:37;15.20;;;7.32;;
69573;SDS011;62840;52.366;5.980;2023-05-15T01:36:15;15.38;;;7.93;;
69573;SDS011;62840;52.366;5.980;2023-05-15T01:39:01;17.15;;;7.50;;
69573;SDS011;62840;52.366;5.980;2023-05-15T01:41:53;16.47;;;7.20;;
69573;SDS011;62840;52.366;5.980;2023-05-15T01:44:39;18.75;;;7.82;;
69573;SDS011;62840;52.366;5.980;2023-05-15T01:47:25;13.98;;;7.18;;
69573;SDS011;62840;52.366;5.980;2023-05-15T01:49:59;17.33;;;7.90;;
69573;SDS011;62840;52.366;5.980;2023-05-15T01:52:37;15.45;;;7.28;;
69573;SDS011;62840;52.366;5.980;2023-05-15T01:55:17;14.03;;;7.73;;
69573;SDS011;62840;52.366;5.980;2023-05-15T01:57:51;15.15;;;7.80;;
69573;SDS011;62840;52.366;5.980;2023-05-15T02:00:28;16.63;;;7.63;;
69573;SDS011;62840;52.366;5.980;2023-05-15T02:02:58;16.63;;;7.60;;
69573;SDS011;62840;52.366;5.980;2023-05-15T02:05:27;14.65;;;7.07;;
69573;SDS011;62840;52.366;5.980;2023-05-15T02:07:55;17.30;;;8.07;;
69573;SDS011;62840;52.366;5.980;2023-05-15T02:10:29;15.43;;;7.70;;
69573;SDS011;62840;52.366;5.980;2023-05-15T02:13:07;14.85;;;7.53;;
69573;SDS011;62840;52.366;5.980;2023-05-15T02:15:42;17.70;;;7.95;;
69573;SDS011;62840;52.366;5.980;2023-05-15T02:18:11;16.27;;;7.82;;
69573;SDS011;62840;52.366;5.980;2023-05-15T02:20:39;16.10;;;7.47;;
69573;SDS011;62840;52.366;5.980;2023-05-15T02:23:32;15.20;;;7.72;;
69573;SDS011;62840;52.366;5.980;2023-05-15T02:26:07;15.20;;;7.55;;
69573;SDS011;62840;52.366;5.980;2023-05-15T02:29:04;15.48;;;7.22;;
69573;SDS011;62840;52.366;5.980;2023-05-15T02:31:46;16.23;;;7.65;;
69573;SDS011;62840;52.366;5.980;2023-05-15T02:34:26;15.83;;;7.20;;
69573;SDS011;62840;52.366;5.980;2023-05-15T02:37:19;14.57;;;7.05;;
69573;SDS011;62840;52.366;5.980;2023-05-15T02:39:57;14.55;;;7.25;;
69573;SDS011;62840;52.366;5.980;2023-05-15T02:42:28;16.13;;;7.25;;
69573;SDS011;62840;52.366;5.980;2023-05-15T02:44:56;16.05;;;7.28;;
69573;SDS011;62840;52.366;5.980;2023-05-15T02:47:28;14.63;;;6.93;;
69573;SDS011;62840;52.366;5.980;2023-05-15T02:50:01;15.45;;;7.10;;
69573;SDS011;62840;52.366;5.980;2023-05-15T02:52:36;13.77;;;6.97;;
69573;SDS011;62840;52.366;5.980;2023-05-15T02:55:08;13.93;;;7.10;;
69573;SDS011;62840;52.366;5.980;2023-05-15T02:57:53;15.07;;;6.80;;
69573;SDS011;62840;52.366;5.980;2023-05-15T03:00:21;14.00;;;7.27;;
69573;SDS011;62840;52.366;5.980;2023-05-15T03:02:55;15.98;;;7.13;;
69573;SDS011;62840;52.366;5.980;2023-05-15T03:05:27;16.45;;;7.15;;
69573;SDS011;62840;52.366;5.980;2023-05-15T03:07:58;12.60;;;7.03;;
69573;SDS011;62840;52.366;5.980;2023-05-15T03:10:37;15.88;;;7.35;;
69573;SDS011;62840;52.366;5.980;2023-05-15T03:13:11;13.17;;;6.83;;
69573;SDS011;62840;52.366;5.980;2023-05-15T03:15:42;14.57;;;7.07;;
69573;SDS011;62840;52.366;5.980;2023-05-15T03:18:14;15.25;;;8.18;;
69573;SDS011;62840;52.366;5.980;2023-05-15T03:20:50;16.52;;;7.05;;
69573;SDS011;62840;52.366;5.980;2023-05-15T03:23:19;16.17;;;7.15;;
69573;SDS011;62840;52.366;5.980;2023-05-15T03:25:47;13.97;;;6.93;;
69573;SDS011;62840;52.366;5.980;2023-05-15T03:28:17;14.18;;;6.68;;
69573;SDS011;62840;52.366;5.980;2023-05-15T03:30:43;14.77;;;6.85;;
69573;SDS011;62840;52.366;5.980;2023-05-15T03:33:18;13.48;;;6.80;;
69573;SDS011;62840;52.366;5.980;2023-05-15T03:36:12;14.75;;;6.72;;
69573;SDS011;62840;52.366;5.980;2023-05-15T03:38:41;15.05;;;7.05;;
69573;SDS011;62840;52.366;5.980;2023-05-15T03:41:12;16.63;;;7.50;;
69573;SDS011;62840;52.366;5.980;2023-05-15T03:43:43;16.13;;;6.88;;
69573;SDS011;62840;52.366;5.980;2023-05-15T03:46:16;13.77;;;7.20;;
69573;SDS011;62840;52.366;5.980;2023-05-15T03:48:46;16.87;;;7.33;;
69573;SDS011;62840;52.366;5.980;2023-05-15T03:51:21;15.45;;;7.00;;
69573;SDS011;62840;52.366;5.980;2023-05-15T03:53:58;14.65;;;7.05;;
69573;SDS011;62840;52.366;5.980;2023-05-15T03:56:30;17.50;;;7.95;;
69573;SDS011;62840;52.366;5.980;2023-05-15T03:59:04;15.05;;;7.90;;
69573;SDS011;62840;52.366;5.980;2023-05-15T04:01:38;18.40;;;8.15;;
69573;SDS011;62840;52.366;5.980;2023-05-15T04:04:13;18.40;;;8.32;;
69573;SDS011;62840;52.366;5.980;2023-05-15T04:06:44;20.23;;;8.75;;
69573;SDS011;62840;52.366;5.980;2023-05-15T04:09:12;17.40;;;8.25;;
69573;SDS011;62840;52.366;5.980;2023-05-15T04:11:39;21.90;;;8.93;;
69573;SDS011;62840;52.366;5.980;2023-05-15T04:14:08;19.15;;;8.48;;
69573;SDS011;62840;52.366;5.980;2023-05-15T04:16:34;17.92;;;8.07;;
69573;SDS011;62840;52.366;5.980;2023-05-15T04:19:02;17.27;;;8.65;;
69573;SDS011;62840;52.366;5.980;2023-05-15T04:21:39;19.20;;;8.90;;
69573;SDS011;62840;52.366;5.980;2023-05-15T04:24:08;18.85;;;8.63;;
69573;SDS011;62840;52.366;5.980;2023-05-15T04:26:38;19.80;;;9.40;;
69573;SDS011;62840;52.366;5.980;2023-05-15T04:29:11;18.17;;;8.43;;
69573;SDS011;62840;52.366;5.980;2023-05-15T04:31:43;17.50;;;8.25;;
69573;SDS011;62840;52.366;5.980;2023-05-15T04:34:10;17.20;;;8.55;;
69573;SDS011;62840;52.366;5.980;2023-05-15T04:36:46;18.38;;;8.60;;
69573;SDS011;62840;52.366;5.980;2023-05-15T04:39:17;17.95;;;8.90;;
69573;SDS011;62840;52.366;5.980;2023-05-15T04:41:45;21.45;;;8.85;;
69573;SDS011;62840;52.366;5.980;2023-05-15T04:44:15;17.80;;;8.25;;
69573;SDS011;62840;52.366;5.980;2023-05-15T04:46:43;17.05;;;8.57;;
69573;SDS011;62840;52.366;5.980;2023-05-15T04:49:14;18.98;;;8.65;;
69573;SDS011;62840;52.366;5.980;2023-05-15T04:51:52;17.80;;;8.65;;
69573;SDS011;62840;52.366;5.980;2023-05-15T04:54:22;17.17;;;8.18;;
69573;SDS011;62840;52.366;5.980;2023-05-15T04:56:48;17.92;;;8.68;;
69573;SDS011;62840;52.366;5.980;2023-05-15T04:59:16;17.38;;;8.63;;
69573;SDS011;62840;52.366;5.980;2023-05-15T05:01:45;18.65;;;8.35;;
69573;SDS011;62840;52.366;5.980;2023-05-15T05:04:11;15.77;;;7.72;;
69573;SDS011;62840;52.366;5.980;2023-05-15T05:06:48;18.25;;;9.05;;
69573;SDS011;62840;52.366;5.980;2023-05-15T05:09:14;18.83;;;8.93;;
69573;SDS011;62840;52.366;5.980;2023-05-15T05:11:48;17.98;;;9.32;;
69573;SDS011;62840;52.366;5.980;2023-05-15T05:14:14;18.75;;;9.05;;
69573;SDS011;62840;52.366;5.980;2023-05-15T05:16:45;18.55;;;9.07;;
69573;SDS011;62840;52.366;5.980;2023-05-15T05:19:12;19.42;;;9.05;;
69573;SDS011;62840;52.366;5.980;2023-05-15T05:21:38;17.83;;;8.43;;
69573;SDS011;62840;52.366;5.980;2023-05-15T05:24:13;19.80;;;9.52;;
69573;SDS011;62840;52.366;5.980;2023-05-15T05:26:45;17.55;;;9.05;;
69573;SDS011;62840;52.366;5.980;2023-05-15T05:29:20;19.55;;;9.50;;
69573;SDS011;62840;52.366;5.980;2023-05-15T05:31:49;21.05;;;9.25;;
69573;SDS011;62840;52.366;5.980;2023-05-15T05:34:17;17.85;;;8.70;;
69573;SDS011;62840;52.366;5.980;2023-05-15T05:36:50;21.67;;;9.77;;
69573;SDS011;62840;52.366;5.980;2023-05-15T05:39:20;22.58;;;9.63;;
69573;SDS011;62840;52.366;5.980;2023-05-15T05:41:54;20.50;;;9.43;;
69573;SDS011;62840;52.366;5.980;2023-05-15T05:44:19;19.13;;;9.20;;
69573;SDS011;62840;52.366;5.980;2023-05-15T05:46:49;24.85;;;9.48;;
69573;SDS011;62840;52.366;5.980;2023-05-15T05:49:22;24.25;;;9.85;;
69573;SDS011;62840;52.366;5.980;2023-05-15T05:51:50;24.67;;;9.98;;
69573;SDS011;62840;52.366;5.980;2023-05-15T05:54:20;21.73;;;10.07;;
69573;SDS011;62840;52.366;5.980;2023-05-15T05:56:49;20.88;;;10.30;;
69573;SDS011;62840;52.366;5.980;2023-05-15T05:59:20;22.08;;;9.57;;
69573;SDS011;62840;52.366;5.980;2023-05-15T06:01:56;22.83;;;10.02;;
69573;SDS011;62840;52.366;5.980;2023-05-15T06:04:25;21.48;;;10.00;;
69573;SDS011;62840;52.366;5.980;2023-05-15T06:06:58;20.17;;;9.57;;
69573;SDS011;62840;52.366;5.980;2023-05-15T06:09:31;22.15;;;8.77;;
69573;SDS011;62840;52.366;5.980;2023-05-15T06:11:59;18.85;;;9.13;;
69573;SDS011;62840;52.366;5.980;2023-05-15T06:14:36;19.80;;;9.43;;
69573;SDS011;62840;52.366;5.980;2023-05-15T06:17:06;20.70;;;9.65;;
69573;SDS011;62840;52.366;5.980;2023-05-15T06:19:42;20.67;;;9.82;;
69573;SDS011;62840;52.366;5.980;2023-05-15T06:22:09;20.55;;;9.75;;
69573;SDS011;62840;52.366;5.980;2023-05-15T06:24:40;26.20;;;10.88;;
69573;SDS011;62840;52.366;5.980;2023-05-15T06:27:14;19.15;;;8.90;;
69573;SDS011;62840;52.366;5.980;2023-05-15T06:29:42;18.25;;;8.88;;
69573;SDS011;62840;52.366;5.980;2023-05-15T06:32:08;19.67;;;8.85;;
69573;SDS011;62840;52.366;5.980;2023-05-15T06:34:42;18.40;;;8.27;;
69573;SDS011;62840;52.366;5.980;2023-05-15T06:37:11;19.15;;;9.15;;
69573;SDS011;62840;52.366;5.980;2023-05-15T06:39:49;17.23;;;8.70;;
69573;SDS011;62840;52.366;5.980;2023-05-15T06:42:25;19.02;;;8.63;;
69573;SDS011;62840;52.366;5.980;2023-05-15T06:45:03;18.35;;;8.45;;
69573;SDS011;62840;52.366;5.980;2023-05-15T06:47:35;17.98;;;8.55;;
69573;SDS011;62840;52.366;5.980;2023-05-15T06:50:08;19.48;;;8.65;;
69573;SDS011;62840;52.366;5.980;2023-05-15T06:52:39;18.23;;;8.63;;
69573;SDS011;62840;52.366;5.980;2023-05-15T06:55:19;16.85;;;8.40;;
69573;SDS011;62840;52.366;5.980;2023-05-15T06:57:52;18.50;;;8.55;;
69573;SDS011;62840;52.366;5.980;2023-05-15T07:00:20;19.60;;;8.85;;
69573;SDS011;62840;52.366;5.980;2023-05-15T07:02:49;19.13;;;9.30;;
69573;SDS011;62840;52.366;5.980;2023-05-15T07:05:27;16.45;;;8.10;;
69573;SDS011;62840;52.366;5.980;2023-05-15T07:07:54;17.45;;;8.50;;
69573;SDS011;62840;52.366;5.980;2023-05-15T07:10:31;17.98;;;8.43;;
69573;SDS011;62840;52.366;5.980;2023-05-15T07:12:57;18.58;;;8.30;;
69573;SDS011;62840;52.366;5.980;2023-05-15T07:15:25;17.38;;;8.60;;
69573;SDS011;62840;52.366;5.980;2023-05-15T07:17:55;16.55;;;8.30;;
69573;SDS011;62840;52.366;5.980;2023-05-15T07:20:24;14.85;;;8.10;;
69573;SDS011;62840;52.366;5.980;2023-05-15T07:22:52;16.77;;;8.10;;
69573;SDS011;62840;52.366;5.980;2023-05-15T07:25:26;16.40;;;8.55;;
69573;SDS011;62840;52.366;5.980;2023-05-15T07:28:09;14.27;;;7.85;;
69573;SDS011;62840;52.366;5.980;2023-05-15T07:30:57;15.80;;;8.25;;
69573;SDS011;62840;52.366;5.980;2023-05-15T07:33:23;15.33;;;7.83;;
69573;SDS011;62840;52.366;5.980;2023-05-15T07:35:51;16.40;;;8.07;;
69573;SDS011;62840;52.366;5.980;2023-05-15T07:38:27;15.10;;;7.70;;
69573;SDS011;62840;52.366;5.980;2023-05-15T07:40:58;17.65;;;8.05;;
69573;SDS011;62840;52.366;5.980;2023-05-15T07:43:28;14.50;;;8.40;;
69573;SDS011;62840;52.366;5.980;2023-05-15T07:45:59;14.00;;;8.05;;
69573;SDS011;62840;52.366;5.980;2023-05-15T07:48:26;15.90;;;7.97;;
69573;SDS011;62840;52.366;5.980;2023-05-15T07:50:54;14.93;;;7.93;;
69573;SDS011;62840;52.366;5.980;2023-05-15T07:53:23;14.40;;;7.90;;
69573;SDS011;62840;52.366;5.980;2023-05-15T07:56:03;13.75;;;7.85;;
69573;SDS011;62840;52.366;5.980;2023-05-15T07:58:37;14.25;;;7.95;;
69573;SDS011;62840;52.366;5.980;2023-05-15T08:01:03;16.10;;;8.80;;
69573;SDS011;62840;52.366;5.980;2023-05-15T08:03:30;14.98;;;8.23;;
69573;SDS011;62840;52.366;5.980;2023-05-15T08:06:00;15.02;;;8.80;;
69573;SDS011;62840;52.366;5.980;2023-05-15T08:08:27;14.05;;;8.05;;
69573;SDS011;62840;52.366;5.980;2023-05-15T08:10:56;13.73;;;7.68;;
69573;SDS011;62840;52.366;5.980;2023-05-15T08:13:28;15.75;;;8.43;;
69573;SDS011;62840;52.366;5.980;2023-05-15T08:15:57;17.15;;;8.63;;
69573;SDS011;62840;52.366;5.980;2023-05-15T08:18:36;15.75;;;8.30;;
69573;SDS011;62840;52.366;5.980;2023-05-15T08:21:03;17.58;;;8.50;;
69573;SDS011;62840;52.366;5.980;2023-05-15T08:23:31;15.25;;;7.80;;
69573;SDS011;62840;52.366;5.980;2023-05-15T08:26:03;15.68;;;8.70;;
69573;SDS011;62840;52.366;5.980;2023-05-15T08:28:32;14.70;;;8.68;;
69573;SDS011;62840;52.366;5.980;2023-05-15T08:30:58;16.75;;;9.15;;
69573;SDS011;62840;52.366;5.980;2023-05-15T08:33:24;16.10;;;8.40;;
69573;SDS011;62840;52.366;5.980;2023-05-15T08:35:53;14.73;;;8.55;;
69573;SDS011;62840;52.366;5.980;2023-05-15T08:38:25;14.38;;;8.15;;
69573;SDS011;62840;52.366;5.980;2023-05-15T08:40:56;16.42;;;8.57;;
69573;SDS011;62840;52.366;5.980;2023-05-15T08:43:31;14.63;;;8.75;;
69573;SDS011;62840;52.366;5.980;2023-05-15T08:46:00;14.30;;;8.23;;
69573;SDS011;62840;52.366;5.980;2023-05-15T08:48:29;13.20;;;7.95;;
69573;SDS011;62840;52.366;5.980;2023-05-15T08:51:06;14.70;;;8.30;;
69573;SDS011;62840;52.366;5.980;2023-05-15T08:53:38;13.85;;;8.52;;
69573;SDS011;62840;52.366;5.980;2023-05-15T08:56:10;12.82;;;7.70;;
69573;SDS011;62840;52.366;5.980;2023-05-15T08:58:43;15.02;;;7.72;;
69573;SDS011;62840;52.366;5.980;2023-05-15T09:01:13;12.70;;;7.30;;
69573;SDS011;62840;52.366;5.980;2023-05-15T09:03:45;11.90;;;7.43;;
69573;SDS011;62840;52.366;5.980;2023-05-15T09:06:29;11.98;;;7.00;;
69573;SDS011;62840;52.366;5.980;2023-05-15T09:08:59;13.05;;;7.13;;
69573;SDS011;62840;52.366;5.980;2023-05-15T09:11:32;13.05;;;6.72;;
69573;SDS011;62840;52.366;5.980;2023-05-15T09:14:00;11.60;;;7.18;;
69573;SDS011;62840;52.366;5.980;2023-05-15T09:16:28;13.40;;;7.50;;
69573;SDS011;62840;52.366;5.980;2023-05-15T09:18:58;12.25;;;7.57;;
69573;SDS011;62840;52.366;5.980;2023-05-15T09:24:16;15.25;;;7.90;;
69573;SDS011;62840;52.366;5.980;2023-05-15T09:29:39;14.23;;;7.72;;
69573;SDS011;62840;52.366;5.980;2023-05-15T09:32:08;15.30;;;8.32;;
69573;SDS011;62840;52.366;5.980;2023-05-15T09:34:43;15.60;;;8.20;;
69573;SDS011;62840;52.366;5.980;2023-05-15T09:37:12;19.60;;;9.88;;
69573;SDS011;62840;52.366;5.980;2023-05-15T09:39:55;16.23;;;9.70;;
69573;SDS011;62840;52.366;5.980;2023-05-15T09:42:38;15.23;;;9.15;;
69573;SDS011;62840;52.366;5.980;2023-05-15T09:45:16;14.95;;;8.52;;
69573;SDS011;62840;52.366;5.980;2023-05-15T09:47:46;14.88;;;8.07;;
69573;SDS011;62840;52.366;5.980;2023-05-15T09:50:18;13.48;;;7.88;;
69573;SDS011;62840;52.366;5.980;2023-05-15T09:53:00;14.27;;;9.52;;
69573;SDS011;62840;52.366;5.980;2023-05-15T09:55:30;12.20;;;7.35;;
69573;SDS011;62840;52.366;5.980;2023-05-15T09:58:09;15.40;;;9.02;;
69573;SDS011;62840;52.366;5.980;2023-05-15T10:00:39;14.77;;;8.65;;
69573;SDS011;62840;52.366;5.980;2023-05-15T10:03:10;14.20;;;8.52;;
69573;SDS011;62840;52.366;5.980;2023-05-15T10:05:46;14.38;;;7.97;;
69573;SDS011;62840;52.366;5.980;2023-05-15T10:08:12;15.23;;;8.95;;
69573;SDS011;62840;52.366;5.980;2023-05-15T10:10:46;13.05;;;7.82;;
69573;SDS011;62840;52.366;5.980;2023-05-15T10:13:18;12.57;;;7.82;;
69573;SDS011;62840;52.366;5.980;2023-05-15T10:15:54;13.57;;;8.30;;
69573;SDS011;62840;52.366;5.980;2023-05-15T10:18:25;11.02;;;7.38;;
69573;SDS011;62840;52.366;5.980;2023-05-15T10:21:03;12.73;;;7.75;;
69573;SDS011;62840;52.366;5.980;2023-05-15T10:23:32;13.90;;;7.57;;
69573;SDS011;62840;52.366;5.980;2023-05-15T10:26:01;10.13;;;6.35;;
69573;SDS011;62840;52.366;5.980;2023-05-15T10:28:42;9.95;;;6.10;;
69573;SDS011;62840;52.366;5.980;2023-05-15T10:31:17;13.25;;;6.80;;
69573;SDS011;62840;52.366;5.980;2023-05-15T10:33:46;12.40;;;7.20;;
69573;SDS011;62840;52.366;5.980;2023-05-15T10:36:19;11.65;;;6.53;;
69573;SDS011;62840;52.366;5.980;2023-05-15T10:38:53;10.68;;;5.38;;
69573;SDS011;62840;52.366;5.980;2023-05-15T10:41:25;10.20;;;6.10;;
69573;SDS011;62840;52.366;5.980;2023-05-15T10:43:59;13.15;;;6.55;;
69573;SDS011;62840;52.366;5.980;2023-05-15T10:46:32;10.05;;;5.63;;
69573;SDS011;62840;52.366;5.980;2023-05-15T10:49:07;8.60;;;5.28;;
69573;SDS011;62840;52.366;5.980;2023-05-15T10:51:34;9.60;;;6.20;;
69573;SDS011;62840;52.366;5.980;2023-05-15T10:54:01;8.57;;;5.50;;
69573;SDS011;62840;52.366;5.980;2023-05-15T10:56:30;9.52;;;5.30;;
69573;SDS011;62840;52.366;5.980;2023-05-15T10:59:03;9.55;;;5.28;;
69573;SDS011;62840;52.366;5.980;2023-05-15T11:01:31;9.88;;;5.43;;
69573;SDS011;62840;52.366;5.980;2023-05-15T11:04:09;10.05;;;6.10;;
69573;SDS011;62840;52.366;5.980;2023-05-15T11:06:39;10.02;;;4.85;;
69573;SDS011;62840;52.366;5.980;2023-05-15T11:12:04;9.85;;;5.85;;
69573;SDS011;62840;52.366;5.980;2023-05-15T11:14:40;9.25;;;5.32;;
69573;SDS011;62840;52.366;5.980;2023-05-15T11:17:30;9.82;;;5.20;;
69573;SDS011;62840;52.366;5.980;2023-05-15T11:20:01;10.93;;;5.97;;
69573;SDS011;62840;52.366;5.980;2023-05-15T11:22:33;8.98;;;5.13;;
69573;SDS011;62840;52.366;5.980;2023-05-15T11:25:03;7.75;;;4.43;;
69573;SDS011;62840;52.366;5.980;2023-05-15T11:27:37;7.35;;;4.47;;
69573;SDS011;62840;52.366;5.980;2023-05-15T11:30:11;9.18;;;5.43;;
69573;SDS011;62840;52.366;5.980;2023-05-15T11:32:43;9.73;;;4.63;;
69573;SDS011;62840;52.366;5.980;2023-05-15T11:35:20;6.95;;;4.53;;
69573;SDS011;62840;52.366;5.980;2023-05-15T11:37:51;6.93;;;4.22;;
69573;SDS011;62840;52.366;5.980;2023-05-15T11:40:20;11.38;;;5.80;;
69573;SDS011;62840;52.366;5.980;2023-05-15T11:43:02;9.07;;;5.18;;
69573;SDS011;62840;52.366;5.980;2023-05-15T11:45:33;7.57;;;4.80;;
69573;SDS011;62840;52.366;5.980;2023-05-15T11:48:02;9.68;;;5.35;;
69573;SDS011;62840;52.366;5.980;2023-05-15T11:50:35;9.77;;;5.07;;
69573;SDS011;62840;52.366;5.980;2023-05-15T11:53:02;7.55;;;4.50;;
69573;SDS011;62840;52.366;5.980;2023-05-15T11:55:30;30.75;;;5.85;;
69573;SDS011;62840;52.366;5.980;2023-05-15T11:57:57;9.35;;;5.30;;
69573;SDS011;62840;52.366;5.980;2023-05-15T12:00:23;8.07;;;4.45;;
69573;SDS011;62840;52.366;5.980;2023-05-15T12:02:52;10.60;;;5.22;;
69573;SDS011;62840;52.366;5.980;2023-05-15T12:05:18;9.70;;;5.72;;
69573;SDS011;62840;52.366;5.980;2023-05-15T12:07:44;11.43;;;5.30;;
69573;SDS011;62840;52.366;5.980;2023-05-15T12:10:10;8.73;;;5.13;;
69573;SDS011;62840;52.366;5.980;2023-05-15T12:12:38;8.50;;;5.15;;
69573;SDS011;62840;52.366;5.980;2023-05-15T12:15:07;9.40;;;5.00;;
69573;SDS011;62840;52.366;5.980;2023-05-15T12:17:35;8.93;;;5.35;;
69573;SDS011;62840;52.366;5.980;2023-05-15T12:20:06;11.50;;;5.78;;
69573;SDS011;62840;52.366;5.980;2023-05-15T12:22:35;11.38;;;6.30;;
69573;SDS011;62840;52.366;5.980;2023-05-15T12:25:02;11.30;;;6.88;;
69573;SDS011;62840;52.366;5.980;2023-05-15T12:27:31;12.13;;;7.30;;
69573;SDS011;62840;52.366;5.980;2023-05-15T12:29:57;12.65;;;6.85;;
69573;SDS011;62840;52.366;5.980;2023-05-15T12:32:25;13.95;;;7.55;;
69573;SDS011;62840;52.366;5.980;2023-05-15T12:34:52;14.40;;;7.28;;
69573;SDS011;62840;52.366;5.980;2023-05-15T12:37:21;15.90;;;8.10;;
69573;SDS011;62840;52.366;5.980;2023-05-15T12:39:53;15.48;;;7.78;;
69573;SDS011;62840;52.366;5.980;2023-05-15T12:42:24;15.98;;;8.32;;
69573;SDS011;62840;52.366;5.980;2023-05-15T12:44:50;16.25;;;8.65;;
69573;SDS011;62840;52.366;5.980;2023-05-15T12:47:20;15.55;;;8.43;;
69573;SDS011;62840;52.366;5.980;2023-05-15T12:49:47;17.25;;;9.35;;
69573;SDS011;62840;52.366;5.980;2023-05-15T12:52:13;16.95;;;8.95;;
69573;SDS011;62840;52.366;5.980;2023-05-15T12:54:43;18.33;;;8.55;;
69573;SDS011;62840;52.366;5.980;2023-05-15T12:57:09;14.18;;;7.90;;
69573;SDS011;62840;52.366;5.980;2023-05-15T12:59:36;15.68;;;8.02;;
69573;SDS011;62840;52.366;5.980;2023-05-15T13:02:04;16.75;;;8.52;;
69573;SDS011;62840;52.366;5.980;2023-05-15T13:04:34;14.75;;;8.40;;
69573;SDS011;62840;52.366;5.980;2023-05-15T13:07:00;14.13;;;7.85;;
69573;SDS011;62840;52.366;5.980;2023-05-15T13:09:26;16.25;;;8.55;;
69573;SDS011;62840;52.366;5.980;2023-05-15T13:11:57;14.80;;;8.32;;
69573;SDS011;62840;52.366;5.980;2023-05-15T13:14:28;16.92;;;9.13;;
69573;SDS011;62840;52.366;5.980;2023-05-15T13:16:57;13.82;;;7.50;;
69573;SDS011;62840;52.366;5.980;2023-05-15T13:19:25;16.90;;;8.50;;
69573;SDS011;62840;52.366;5.980;2023-05-15T13:21:51;16.88;;;7.85;;
69573;SDS011;62840;52.366;5.980;2023-05-15T13:24:17;16.13;;;8.63;;
69573;SDS011;62840;52.366;5.980;2023-05-15T13:26:43;12.70;;;7.20;;
69573;SDS011;62840;52.366;5.980;2023-05-15T13:29:11;15.18;;;7.78;;
69573;SDS011;62840;52.366;5.980;2023-05-15T13:31:37;14.18;;;7.10;;
69573;SDS011;62840;52.366;5.980;2023-05-15T13:34:03;13.80;;;7.20;;
69573;SDS011;62840;52.366;5.980;2023-05-15T13:36:29;16.83;;;8.43;;
69573;SDS011;62840;52.366;5.980;2023-05-15T13:38:54;16.30;;;8.27;;
69573;SDS011;62840;52.366;5.980;2023-05-15T13:41:20;15.38;;;8.52;;
69573;SDS011;62840;52.366;5.980;2023-05-15T13:43:46;17.45;;;8.65;;
69573;SDS011;62840;52.366;5.980;2023-05-15T13:46:14;15.00;;;7.90;;
69573;SDS011;62840;52.366;5.980;2023-05-15T13:48:43;14.88;;;8.18;;
69573;SDS011;62840;52.366;5.980;2023-05-15T13:51:09;14.70;;;8.05;;
69573;SDS011;62840;52.366;5.980;2023-05-15T13:53:35;13.70;;;7.63;;
69573;SDS011;62840;52.366;5.980;2023-05-15T13:56:01;12.70;;;7.00;;
69573;SDS011;62840;52.366;5.980;2023-05-15T13:58:26;14.57;;;7.47;;
69573;SDS011;62840;52.366;5.980;2023-05-15T14:00:52;12.73;;;6.63;;
69573;SDS011;62840;52.366;5.980;2023-05-15T14:03:21;12.80;;;7.32;;
69573;SDS011;62840;52.366;5.980;2023-05-15T14:05:47;13.55;;;7.05;;
69573;SDS011;62840;52.366;5.980;2023-05-15T14:08:12;12.23;;;6.33;;
69573;SDS011;62840;52.366;5.980;2023-05-15T14:10:38;12.57;;;6.95;;
69573;SDS011;62840;52.366;5.980;2023-05-15T14:13:04;14.03;;;6.63;;
69573;SDS011;62840;52.366;5.980;2023-05-15T14:15:30;14.45;;;7.10;;
69573;SDS011;62840;52.366;5.980;2023-05-15T14:17:56;12.50;;;6.37;;
69573;SDS011;62840;52.366;5.980;2023-05-15T14:20:24;12.50;;;6.25;;
69573;SDS011;62840;52.366;5.980;2023-05-15T14:22:50;11.45;;;6.28;;
69573;SDS011;62840;52.366;5.980;2023-05-15T14:25:16;10.20;;;5.87;;
69573;SDS011;62840;52.366;5.980;2023-05-15T14:27:43;12.00;;;6.40;;
69573;SDS011;62840;52.366;5.980;2023-05-15T14:30:09;12.55;;;6.60;;
69573;SDS011;62840;52.366;5.980;2023-05-15T14:32:36;14.02;;;6.85;;
69573;SDS011;62840;52.366;5.980;2023-05-15T14:35:02;12.97;;;7.23;;
69573;SDS011;62840;52.366;5.980;2023-05-15T14:37:31;11.50;;;6.65;;
69573;SDS011;62840;52.366;5.980;2023-05-15T14:39:57;14.75;;;7.78;;
69573;SDS011;62840;52.366;5.980;2023-05-15T14:42:24;13.33;;;7.53;;
69573;SDS011;62840;52.366;5.980;2023-05-15T14:44:50;14.45;;;7.22;;
69573;SDS011;62840;52.366;5.980;2023-05-15T14:47:16;13.35;;;7.55;;
69573;SDS011;62840;52.366;5.980;2023-05-15T14:49:42;16.00;;;8.35;;
69573;SDS011;62840;52.366;5.980;2023-05-15T14:52:08;13.65;;;7.80;;
69573;SDS011;62840;52.366;5.980;2023-05-15T14:54:38;14.30;;;8.40;;
69573;SDS011;62840;52.366;5.980;2023-05-15T14:57:04;14.55;;;7.63;;
69573;SDS011;62840;52.366;5.980;2023-05-15T14:59:31;14.32;;;7.85;;
69573;SDS011;62840;52.366;5.980;2023-05-15T15:01:56;14.83;;;8.17;;
69573;SDS011;62840;52.366;5.980;2023-05-15T15:04:23;19.23;;;7.68;;
69573;SDS011;62840;52.366;5.980;2023-05-15T15:06:49;12.20;;;7.68;;
69573;SDS011;62840;52.366;5.980;2023-05-15T15:09:14;13.00;;;8.07;;
69573;SDS011;62840;52.366;5.980;2023-05-15T15:11:43;15.30;;;9.57;;